s-Heerenberg, Netherlands
Current Conditions -  °F | °C
As of 4:50 AM on Friday 31 Oct 2014 (Local Time) from EDLV Reporting Station
Clear Clear  
Wind Chill: 52°   Ceiling: Unl
Heat Index: 52°   Visibility: 4mi
Dew Point: 52°   Wind: 7mph
Humidity: 100%   Direction: 150°SSE
Pressure: 30.18"   Gusts: NA
Location:  51.88°N, 6.26°E
Report Text: EDLV 310350Z 15006KT 6000 NSC 11/11 Q1022
Loading
Personal Weather Stations






























Interactive Weather Map
Tropical Storm Tracking
New forecast layout! Learn more

10-Day Weather Forecast

Advertisements
Track Severe Weather on mobile